Time;durP1;ratioP1;P1;durP2;ratioP2;P2;SDS_P1;SDS_P2;PMS_P1;PMS_P2;Temp;Humidity;BMP_temperature;BMP_pressure;BME280_temperature;BME280_humidity;BME280_pressure;Samples;Min_cycle;Max_cycle;Signal;HPM_P1;HPM_P2
2023/05/16 00:00:34;;;;;;;2.92;2.63;;;19.90;65.10;;;;;;4992534;28;20034;-58
2023/05/16 00:03:00;;;;;;;2.70;2.45;;;19.90;65.10;;;;;;4997173;28;20035;-59
2023/05/16 00:05:26;;;;;;;2.65;2.45;;;19.90;65.10;;;;;;4986666;28;20117;-59
2023/05/16 00:07:51;;;;;;;3.15;2.72;;;19.90;65.10;;;;;;4992103;28;20117;-59
2023/05/16 00:10:17;;;;;;;3.13;2.53;;;19.90;65.10;;;;;;4995246;28;20072;-58
2023/05/16 00:12:43;;;;;;;2.95;2.70;;;19.90;65.00;;;;;;4986439;28;20064;-58
2023/05/16 00:15:13;;;;;;;3.30;3.00;;;19.90;65.10;;;;;;4989770;28;20034;-58
2023/05/16 00:17:39;;;;;;;3.35;3.05;;;19.90;65.10;;;;;;4992022;28;20091;-59
2023/05/16 00:20:07;;;;;;;4.07;3.40;;;19.90;65.00;;;;;;4989289;28;20034;-59
2023/05/16 00:22:32;;;;;;;3.30;2.60;;;19.90;65.10;;;;;;4995039;28;20548;-59
2023/05/16 00:24:58;;;;;;;3.50;2.70;;;19.90;65.00;;;;;;4994817;28;20045;-59
2023/05/16 00:27:23;;;;;;;2.75;2.53;;;19.90;65.10;;;;;;4994079;28;20037;-57
2023/05/16 00:29:49;;;;;;;3.30;3.00;;;19.90;65.00;;;;;;4989763;28;20399;-59
2023/05/16 00:32:14;;;;;;;2.83;2.63;;;19.90;65.00;;;;;;4994451;28;20570;-59
2023/05/16 00:34:40;;;;;;;3.38;3.03;;;19.80;65.00;;;;;;4992142;28;20030;-58
2023/05/16 00:37:05;;;;;;;3.45;3.15;;;19.90;65.00;;;;;;4985274;28;20471;-59
2023/05/16 00:39:31;;;;;;;3.50;3.20;;;19.90;65.00;;;;;;4984743;28;20026;-59
2023/05/16 00:41:57;;;;;;;3.67;3.38;;;19.90;65.00;;;;;;4985627;28;20113;-59
2023/05/16 00:44:22;;;;;;;3.45;3.15;;;19.90;65.00;;;;;;4987786;28;20049;-59
2023/05/16 00:46:48;;;;;;;3.03;2.75;;;19.90;65.00;;;;;;4985181;28;20030;-59
2023/05/16 00:49:13;;;;;;;4.13;3.45;;;19.90;65.00;;;;;;4991343;28;20419;-59
2023/05/16 00:51:39;;;;;;;2.88;2.67;;;19.90;65.00;;;;;;4992769;28;20768;-58
2023/05/16 00:54:05;;;;;;;4.25;3.20;;;19.90;65.00;;;;;;4992271;28;20707;-60
2023/05/16 00:56:32;;;;;;;3.28;3.00;;;19.90;65.00;;;;;;4991106;28;20515;-59
2023/05/16 00:58:58;;;;;;;3.05;2.78;;;19.80;64.90;;;;;;4991893;28;20066;-58
2023/05/16 01:01:26;;;;;;;3.20;2.90;;;19.80;64.90;;;;;;4986193;28;20049;-59
2023/05/16 01:03:52;;;;;;;3.45;3.17;;;19.90;65.00;;;;;;4988731;28;20117;-60
2023/05/16 01:06:18;;;;;;;3.60;3.30;;;19.80;64.90;;;;;;4985810;28;20137;-60
2023/05/16 01:08:44;;;;;;;3.42;2.97;;;19.80;64.90;;;;;;4986041;28;20034;-60
2023/05/16 01:11:30;;;;;;;3.60;3.30;;;19.80;64.90;;;;;;4988715;28;20257;-58
2023/05/16 01:14:33;;;;;;;3.13;2.88;;;19.80;64.90;;;;;;4994018;28;20050;-59
2023/05/16 01:17:12;;;;;;;3.20;2.97;;;19.80;64.90;;;;;;4992962;28;20030;-59
2023/05/16 01:19:56;;;;;;;3.72;2.90;;;19.80;64.90;;;;;;4991841;28;20431;-59
2023/05/16 01:22:41;;;;;;;3.10;2.80;;;19.80;64.90;;;;;;4999884;28;20030;-60
2023/05/16 01:25:38;;;;;;;3.67;2.70;;;19.80;64.90;;;;;;4999223;28;20451;-60
2023/05/16 01:28:05;;;;;;;3.28;2.97;;;19.80;64.90;;;;;;4993847;28;20089;-58
2023/05/16 01:30:38;;;;;;;2.88;2.63;;;19.80;64.90;;;;;;4995885;28;20041;-59
2023/05/16 01:33:03;;;;;;;3.22;2.92;;;19.80;64.90;;;;;;4987148;28;20034;-56
2023/05/16 01:35:30;;;;;;;3.47;3.17;;;19.80;64.90;;;;;;4994748;28;20034;-57
2023/05/16 01:38:14;;;;;;;4.28;3.88;;;19.80;64.90;;;;;;4988266;28;20538;-59
2023/05/16 01:41:17;;;;;;;2.78;2.55;;;19.80;64.90;;;;;;4992644;28;20396;-57
2023/05/16 01:43:47;;;;;;;3.42;3.13;;;19.80;64.80;;;;;;4992920;28;20544;-58
2023/05/16 01:46:15;;;;;;;3.92;3.10;;;19.80;64.80;;;;;;4993540;28;20037;-59
2023/05/16 01:49:08;;;;;;;3.15;2.85;;;19.80;64.80;;;;;;4992072;28;20484;-58
2023/05/16 01:51:38;;;;;;;2.83;2.63;;;19.80;64.80;;;;;;4989510;28;20117;-57
2023/05/16 01:54:06;;;;;;;3.38;3.08;;;19.80;64.90;;;;;;4999391;28;20034;-59
2023/05/16 01:56:32;;;;;;;3.00;2.80;;;19.80;64.80;;;;;;4998506;28;20045;-57
2023/05/16 01:58:59;;;;;;;4.93;3.13;;;19.80;64.80;;;;;;4997808;28;20034;-58
2023/05/16 02:01:25;;;;;;;2.97;2.70;;;19.80;64.80;;;;;;4997209;28;20439;-60
2023/05/16 02:03:51;;;;;;;2.70;2.50;;;19.80;64.80;;;;;;4990567;28;20042;-59
2023/05/16 02:06:16;;;;;;;3.15;2.85;;;19.80;64.80;;;;;;4986999;28;20041;-59
2023/05/16 02:08:42;;;;;;;4.30;3.15;;;19.70;64.70;;;;;;4988535;28;20041;-59
2023/05/16 02:11:07;;;;;;;3.22;2.92;;;19.70;64.70;;;;;;4989541;28;20131;-59
2023/05/16 02:13:33;;;;;;;3.05;2.75;;;19.80;64.80;;;;;;4993976;28;20033;-59
2023/05/16 02:15:58;;;;;;;3.92;2.75;;;19.70;64.70;;;;;;4988478;28;20030;-59
2023/05/16 02:18:24;;;;;;;5.25;3.50;;;19.70;64.70;;;;;;4993988;28;20406;-59
2023/05/16 02:20:50;;;;;;;3.83;3.45;;;19.70;64.70;;;;;;4997475;28;20416;-58
2023/05/16 02:23:16;;;;;;;3.83;3.33;;;19.70;64.70;;;;;;4989791;28;20124;-59
2023/05/16 02:25:41;;;;;;;3.22;2.92;;;19.70;64.70;;;;;;4997387;28;20179;-59
2023/05/16 02:28:07;;;;;;;3.38;3.08;;;19.70;64.70;;;;;;4996261;28;20042;-58
2023/05/16 02:30:32;;;;;;;3.10;2.80;;;19.70;64.70;;;;;;4988449;28;20522;-59
2023/05/16 02:32:58;;;;;;;3.63;2.53;;;19.70;64.70;;;;;;4988464;28;20264;-58
2023/05/16 02:35:23;;;;;;;2.53;2.33;;;19.70;64.70;;;;;;4982923;28;20034;-58
2023/05/16 02:37:49;;;;;;;3.28;2.95;;;19.70;65.00;;;;;;4987767;28;20087;-57
2023/05/16 02:40:15;;;;;;;3.17;2.72;;;19.70;64.70;;;;;;4983045;28;20049;-58
2023/05/16 02:42:40;;;;;;;3.25;2.97;;;19.70;64.70;;;;;;4991947;28;20423;-58
2023/05/16 02:45:06;;;;;;;3.97;3.30;;;19.70;64.70;;;;;;4984884;28;20119;-58
2023/05/16 02:47:32;;;;;;;3.33;3.08;;;19.70;64.60;;;;;;4992270;28;20050;-59
2023/05/16 02:49:57;;;;;;;3.30;2.80;;;19.70;64.70;;;;;;4991399;28;20038;-58
2023/05/16 02:52:23;;;;;;;3.55;3.25;;;19.70;64.60;;;;;;4997024;28;20552;-59
2023/05/16 02:54:48;;;;;;;4.80;3.00;;;19.70;64.60;;;;;;4992631;28;20037;-59
2023/05/16 02:57:14;;;;;;;3.10;2.90;;;19.70;64.60;;;;;;4998209;28;20033;-58
2023/05/16 02:59:39;;;;;;;3.33;2.80;;;19.70;64.70;;;;;;4992446;28;20118;-59
2023/05/16 03:02:05;;;;;;;3.28;3.00;;;19.70;64.60;;;;;;4983167;28;20038;-58
2023/05/16 03:04:30;;;;;;;3.22;2.92;;;19.70;64.70;;;;;;4990236;28;20054;-58
2023/05/16 03:06:56;;;;;;;3.30;2.95;;;19.70;64.60;;;;;;4986579;28;20034;-59
2023/05/16 03:09:21;;;;;;;3.20;2.90;;;19.70;64.60;;;;;;4985496;28;20492;-60
2023/05/16 03:11:47;;;;;;;3.38;3.05;;;19.70;64.60;;;;;;4987707;28;20030;-59
2023/05/16 03:14:12;;;;;;;2.95;2.70;;;19.70;64.70;;;;;;4988830;28;20054;-59
2023/05/16 03:16:40;;;;;;;2.95;2.75;;;19.70;64.60;;;;;;4991384;28;20423;-59
2023/05/16 03:19:06;;;;;;;3.28;2.97;;;19.70;64.60;;;;;;4994113;28;20061;-59
2023/05/16 03:21:31;;;;;;;3.08;2.80;;;19.70;65.20;;;;;;4996248;28;20041;-60
2023/05/16 03:23:57;;;;;;;2.78;2.58;;;19.70;64.60;;;;;;4996471;28;20034;-58
2023/05/16 03:26:23;;;;;;;3.70;2.80;;;19.70;64.60;;;;;;4986737;28;20082;-58
2023/05/16 03:28:50;;;;;;;3.58;3.28;;;19.70;64.60;;;;;;4990206;28;20037;-59
2023/05/16 03:31:15;;;;;;;3.38;3.10;;;19.70;64.60;;;;;;4987814;28;20034;-59
2023/05/16 03:33:41;;;;;;;3.70;3.40;;;19.70;64.60;;;;;;4988373;28;20462;-59
2023/05/16 03:36:07;;;;;;;3.08;2.88;;;19.70;64.60;;;;;;4983316;28;20057;-58
2023/05/16 03:38:32;;;;;;;3.08;2.88;;;19.70;64.60;;;;;;4987899;28;20042;-60
2023/05/16 03:40:58;;;;;;;3.00;2.80;;;19.70;64.60;;;;;;4976476;28;20513;-59
2023/05/16 03:43:24;;;;;;;2.95;2.75;;;19.70;64.60;;;;;;4981815;28;20042;-60
2023/05/16 03:45:49;;;;;;;3.88;2.90;;;19.70;64.50;;;;;;4983493;28;20114;-58
2023/05/16 03:48:15;;;;;;;3.08;2.65;;;19.70;64.50;;;;;;4993181;28;20038;-61
2023/05/16 03:50:40;;;;;;;2.85;2.65;;;19.70;64.50;;;;;;4992327;28;20140;-58
2023/05/16 03:53:06;;;;;;;3.42;2.95;;;19.70;64.50;;;;;;4991957;28;20033;-58
2023/05/16 03:55:32;;;;;;;3.17;2.88;;;19.60;64.50;;;;;;4991713;28;20043;-59
2023/05/16 03:57:57;;;;;;;4.65;3.13;;;19.70;64.50;;;;;;4988934;28;20065;-59
2023/05/16 04:00:23;;;;;;;3.67;2.72;;;19.70;64.50;;;;;;4991074;28;20030;-59
2023/05/16 04:02:48;;;;;;;3.28;2.97;;;19.60;64.50;;;;;;4990587;28;20037;-60
2023/05/16 04:05:14;;;;;;;4.28;2.97;;;19.60;64.50;;;;;;4980892;28;20376;-59
2023/05/16 04:07:40;;;;;;;3.83;2.70;;;19.60;64.50;;;;;;4985467;28;20030;-59
2023/05/16 04:10:06;;;;;;;3.88;3.13;;;19.60;64.50;;;;;;4986923;28;20436;-60
2023/05/16 04:12:32;;;;;;;3.25;3.00;;;19.60;64.50;;;;;;4985914;28;20026;-60
2023/05/16 04:14:57;;;;;;;3.17;2.88;;;19.60;64.50;;;;;;4984664;28;20808;-58
2023/05/16 04:17:23;;;;;;;3.15;2.85;;;19.60;64.50;;;;;;4988964;28;20061;-59
2023/05/16 04:19:48;;;;;;;4.00;2.90;;;19.60;65.20;;;;;;4989843;28;20050;-59
2023/05/16 04:22:14;;;;;;;3.05;2.85;;;19.60;65.10;;;;;;4992032;28;20030;-59
2023/05/16 04:24:39;;;;;;;3.33;2.47;;;19.60;64.50;;;;;;4988593;28;20491;-59
2023/05/16 04:27:08;;;;;;;3.72;3.30;;;19.60;64.60;;;;;;4990683;28;20026;-59
2023/05/16 04:29:34;;;;;;;3.55;3.25;;;19.60;64.50;;;;;;4992660;28;20034;-59
2023/05/16 04:32:01;;;;;;;3.17;2.88;;;19.60;64.50;;;;;;4983222;28;20027;-59
2023/05/16 04:34:26;;;;;;;3.35;3.08;;;19.60;64.50;;;;;;4983502;28;20519;-60
2023/05/16 04:36:53;;;;;;;3.28;2.95;;;19.60;64.50;;;;;;4982861;28;20262;-59
2023/05/16 04:39:18;;;;;;;3.30;2.97;;;19.60;64.50;;;;;;4986699;28;20096;-59
2023/05/16 04:41:44;;;;;;;3.13;2.80;;;19.60;64.40;;;;;;4989259;28;20037;-58
2023/05/16 04:44:10;;;;;;;3.45;3.15;;;19.60;64.50;;;;;;4988045;28;20080;-59
2023/05/16 04:46:36;;;;;;;4.63;3.25;;;19.60;64.40;;;;;;4989559;28;20338;-58
2023/05/16 04:49:01;;;;;;;3.60;2.95;;;19.70;64.50;;;;;;4988547;28;20042;-59
2023/05/16 04:51:27;;;;;;;3.15;2.60;;;19.60;64.40;;;;;;4993327;28;20087;-58
2023/05/16 04:53:52;;;;;;;3.35;2.70;;;19.60;64.40;;;;;;4990325;28;20045;-59
2023/05/16 04:56:19;;;;;;;3.20;3.00;;;19.60;64.40;;;;;;4988293;28;20030;-59
2023/05/16 04:58:44;;;;;;;3.42;3.13;;;19.60;64.40;;;;;;4983308;28;20476;-60
2023/05/16 05:01:10;;;;;;;3.38;3.05;;;19.60;64.30;;;;;;4988134;28;20105;-60
2023/05/16 05:03:36;;;;;;;4.00;3.10;;;19.60;64.30;;;;;;4982362;28;20246;-59
2023/05/16 05:06:02;;;;;;;6.80;3.55;;;19.60;64.30;;;;;;4985207;28;20037;-58
2023/05/16 05:08:27;;;;;;;4.88;3.33;;;19.60;64.30;;;;;;4984187;28;20556;-59
2023/05/16 05:10:55;;;;;;;7.28;3.03;;;19.60;64.40;;;;;;4988279;28;20042;-60
2023/05/16 05:13:21;;;;;;;9.35;3.33;;;19.60;64.30;;;;;;4985666;28;20069;-58
2023/05/16 05:15:46;;;;;;;3.38;2.60;;;19.60;64.30;;;;;;4988056;28;20133;-59
2023/05/16 05:18:11;;;;;;;8.48;4.05;;;19.60;64.30;;;;;;4988574;28;20041;-60
2023/05/16 05:20:37;;;;;;;4.60;2.90;;;19.60;64.30;;;;;;4991666;28;20141;-60
2023/05/16 05:23:03;;;;;;;3.60;3.30;;;19.60;64.40;;;;;;4987515;28;20034;-59
2023/05/16 05:25:28;;;;;;;4.45;3.15;;;19.60;64.30;;;;;;4989272;28;20137;-58
2023/05/16 05:27:54;;;;;;;6.20;3.30;;;19.60;64.30;;;;;;4992130;28;20030;-59
2023/05/16 05:30:20;;;;;;;9.00;5.10;;;19.60;64.30;;;;;;4979472;28;20142;-59
2023/05/16 05:32:45;;;;;;;10.60;5.13;;;19.60;64.40;;;;;;4982949;28;20040;-59
2023/05/16 05:35:11;;;;;;;7.22;5.78;;;19.60;64.70;;;;;;4982236;28;20029;-59
2023/05/16 05:37:36;;;;;;;10.18;5.50;;;19.60;64.60;;;;;;4987252;28;20511;-58
2023/05/16 05:40:02;;;;;;;14.15;5.70;;;19.60;64.60;;;;;;4983281;28;20114;-59
2023/05/16 05:42:28;;;;;;;9.32;5.32;;;19.60;64.50;;;;;;4990368;28;20040;-59
2023/05/16 05:44:54;;;;;;;9.90;5.30;;;19.60;64.50;;;;;;4990210;28;20286;-58
2023/05/16 05:47:20;;;;;;;8.10;5.68;;;19.60;65.10;;;;;;4990149;28;20326;-58
2023/05/16 05:49:47;;;;;;;10.18;5.20;;;19.60;64.40;;;;;;4970511;28;20031;-57
2023/05/16 05:52:12;;;;;;;6.82;4.75;;;19.60;64.40;;;;;;4988809;28;20026;-61
2023/05/16 05:54:38;;;;;;;6.90;4.70;;;19.50;64.40;;;;;;4986937;28;20035;-59
2023/05/16 05:57:03;;;;;;;8.77;5.43;;;19.50;64.30;;;;;;4985126;28;20030;-59
2023/05/16 05:59:29;;;;;;;8.93;5.00;;;19.50;64.50;;;;;;4991849;28;20093;-59
2023/05/16 06:01:54;;;;;;;8.02;5.50;;;19.50;64.40;;;;;;4984068;28;20021;-59
2023/05/16 06:04:20;;;;;;;8.40;5.47;;;19.60;64.50;;;;;;4986270;28;20045;-57
2023/05/16 06:06:46;;;;;;;8.55;5.20;;;19.50;64.50;;;;;;4988945;28;20037;-57
2023/05/16 06:09:13;;;;;;;9.63;6.50;;;19.50;64.50;;;;;;4988527;28;20499;-59
2023/05/16 06:11:40;;;;;;;8.18;5.82;;;19.50;64.70;;;;;;4992860;28;20076;-59
2023/05/16 06:14:05;;;;;;;9.15;5.88;;;19.50;64.70;;;;;;4988681;28;20499;-60
2023/05/16 06:16:31;;;;;;;9.95;6.07;;;19.50;64.60;;;;;;4997046;28;20034;-58
2023/05/16 06:18:56;;;;;;;8.48;5.78;;;19.60;64.60;;;;;;4994927;28;20073;-59
2023/05/16 06:21:22;;;;;;;7.20;5.45;;;19.50;64.50;;;;;;4988428;28;20511;-59
2023/05/16 06:23:47;;;;;;;7.65;5.53;;;19.50;64.50;;;;;;4988245;28;20038;-58
2023/05/16 06:26:13;;;;;;;8.50;5.88;;;19.60;64.50;;;;;;4993569;28;20034;-59
2023/05/16 06:28:38;;;;;;;10.43;6.72;;;19.50;64.40;;;;;;4986551;28;20133;-58
2023/05/16 06:31:04;;;;;;;8.90;6.28;;;19.50;64.40;;;;;;4983115;28;20086;-58
2023/05/16 06:33:30;;;;;;;11.68;7.63;;;19.60;64.30;;;;;;4987240;28;20396;-59
2023/05/16 06:35:55;;;;;;;10.45;7.93;;;19.50;64.20;;;;;;4986355;28;20076;-58
2023/05/16 06:38:21;;;;;;;16.40;9.07;;;19.50;64.20;;;;;;4990870;28;20472;-58
2023/05/16 06:40:46;;;;;;;14.77;9.65;;;19.50;64.40;;;;;;4985702;28;20213;-59
2023/05/16 06:43:12;;;;;;;19.05;9.05;;;19.50;64.40;;;;;;4986552;28;20030;-59
2023/05/16 06:45:37;;;;;;;12.93;8.80;;;19.50;64.40;;;;;;4986742;23;20106;-70
2023/05/16 06:48:05;;;;;;;15.88;9.82;;;19.50;64.30;;;;;;4964048;28;20030;-69
2023/05/16 06:50:31;;;;;;;12.75;8.80;;;19.50;64.30;;;;;;4963834;28;20127;-69
2023/05/16 06:52:57;;;;;;;16.42;8.98;;;19.50;64.30;;;;;;4966755;28;20539;-72
2023/05/16 06:55:23;;;;;;;10.75;9.18;;;19.50;64.30;;;;;;4964055;28;20624;-69
2023/05/16 06:57:48;;;;;;;16.20;8.68;;;19.50;64.40;;;;;;4962441;28;20400;-69
2023/05/16 07:00:14;;;;;;;14.90;9.43;;;19.50;64.60;;;;;;4962028;28;20029;-71
2023/05/16 07:02:40;;;;;;;13.90;8.00;;;19.50;64.60;;;;;;4960918;28;20035;-71
2023/05/16 07:05:06;;;;;;;11.98;8.15;;;19.50;64.90;;;;;;4960490;28;20035;-72
2023/05/16 07:07:32;;;;;;;13.73;7.78;;;19.50;64.80;;;;;;4968061;28;20027;-71
2023/05/16 07:09:57;;;;;;;12.02;8.38;;;19.60;64.80;;;;;;4967559;28;20038;-72
2023/05/16 07:12:23;;;;;;;10.63;8.13;;;19.60;65.00;;;;;;4963288;28;20489;-71
2023/05/16 07:14:49;;;;;;;10.65;7.50;;;19.70;64.90;;;;;;4961152;28;20548;-71
2023/05/16 07:17:15;;;;;;;13.18;7.40;;;19.70;65.60;;;;;;4960432;28;20621;-71
2023/05/16 07:19:40;;;;;;;11.15;7.38;;;19.70;64.80;;;;;;4960575;28;20114;-71
2023/05/16 07:22:06;;;;;;;10.88;6.57;;;19.70;64.80;;;;;;4959426;28;20459;-71
2023/05/16 07:24:31;;;;;;;10.85;7.65;;;19.80;64.80;;;;;;4964393;28;20166;-71
2023/05/16 07:26:57;;;;;;;9.10;7.78;;;19.80;64.80;;;;;;4960608;28;20063;-70
2023/05/16 07:29:24;;;;;;;11.35;7.45;;;19.80;64.80;;;;;;4961654;28;20038;-72
2023/05/16 07:31:49;;;;;;;10.18;7.53;;;19.80;64.70;;;;;;4959605;28;20523;-70
2023/05/16 07:34:16;;;;;;;9.77;7.57;;;19.90;64.80;;;;;;4957569;28;20082;-70
2023/05/16 07:36:41;;;;;;;7.03;6.32;;;19.90;64.90;;;;;;4960051;28;20042;-71
2023/05/16 07:39:07;;;;;;;10.07;6.43;;;19.90;64.90;;;;;;4963492;28;20030;-71
2023/05/16 07:41:33;;;;;;;9.40;7.15;;;19.90;65.00;;;;;;4967192;28;20034;-72
2023/05/16 07:43:58;;;;;;;8.98;6.55;;;19.90;65.00;;;;;;4960911;28;20027;-70
2023/05/16 07:46:24;;;;;;;11.07;7.45;;;19.90;64.80;;;;;;4956858;28;20043;-70
2023/05/16 07:48:50;;;;;;;11.50;7.18;;;20.00;64.90;;;;;;4987657;23;20432;-51
2023/05/16 07:51:15;;;;;;;11.88;8.07;;;20.00;65.10;;;;;;4989164;28;20037;-50
2023/05/16 07:53:41;;;;;;;14.27;9.57;;;20.00;64.90;;;;;;4985861;28;20034;-58
2023/05/16 07:56:07;;;;;;;14.52;9.43;;;20.00;65.00;;;;;;4985633;28;20030;-49
2023/05/16 07:58:32;;;;;;;16.27;10.45;;;20.00;64.90;;;;;;4986483;28;20125;-49
2023/05/16 08:00:58;;;;;;;15.63;8.82;;;20.00;64.90;;;;;;4990175;28;20116;-49
2023/05/16 08:03:24;;;;;;;14.80;9.15;;;20.00;64.80;;;;;;4987585;28;20319;-53
2023/05/16 08:05:50;;;;;;;12.57;8.30;;;20.00;65.00;;;;;;4990997;28;20030;-55
2023/05/16 08:08:16;;;;;;;15.57;8.95;;;20.10;64.80;;;;;;4992361;28;20037;-57
2023/05/16 08:10:41;;;;;;;13.77;9.45;;;20.10;64.80;;;;;;4987794;28;20031;-48
2023/05/16 08:13:07;;;;;;;13.40;8.05;;;20.00;64.70;;;;;;4990604;28;20083;-52
2023/05/16 08:15:32;;;;;;;11.02;7.95;;;20.10;64.60;;;;;;4984323;28;20439;-50
2023/05/16 08:17:58;;;;;;;16.52;8.73;;;20.10;64.50;;;;;;4986266;28;20041;-51
2023/05/16 08:20:24;;;;;;;13.82;8.25;;;20.10;64.50;;;;;;4984010;28;20046;-52
2023/05/16 08:22:51;;;;;;;11.23;8.40;;;20.10;64.50;;;;;;4983882;28;20034;-53
2023/05/16 08:25:16;;;;;;;9.57;7.50;;;20.10;64.50;;;;;;4984894;28;20563;-51
2023/05/16 08:27:44;;;;;;;16.15;8.73;;;20.10;64.30;;;;;;4987100;28;20052;-56
2023/05/16 08:30:10;;;;;;;16.23;8.10;;;20.10;64.30;;;;;;4987591;28;20387;-56
2023/05/16 08:32:36;;;;;;;10.43;8.60;;;20.10;64.20;;;;;;4988693;28;20034;-54
2023/05/16 08:35:02;;;;;;;12.25;8.48;;;20.00;64.10;;;;;;4993546;28;20034;-49
2023/05/16 08:37:27;;;;;;;9.82;8.80;;;20.00;64.10;;;;;;4987515;28;20432;-55
2023/05/16 08:39:53;;;;;;;14.65;9.60;;;20.00;63.90;;;;;;4990915;28;20133;-51
2023/05/16 08:42:18;;;;;;;12.50;10.02;;;20.00;63.90;;;;;;4988142;28;20138;-58
2023/05/16 08:44:44;;;;;;;9.52;8.50;;;20.00;63.80;;;;;;4984395;28;20033;-48
2023/05/16 08:47:18;;;;;;;9.90;8.38;;;20.00;63.70;;;;;;4983017;28;20398;-52
2023/05/16 08:49:46;;;;;;;12.45;9.00;;;20.00;63.70;;;;;;4980972;28;20428;-57
2023/05/16 08:52:15;;;;;;;16.73;9.88;;;20.00;63.60;;;;;;4984172;28;20027;-49
2023/05/16 08:54:41;;;;;;;13.52;9.95;;;20.00;63.90;;;;;;4984531;28;20455;-54
2023/05/16 08:57:07;;;;;;;12.13;9.85;;;20.00;63.90;;;;;;4983241;28;20510;-58
2023/05/16 08:59:34;;;;;;;13.50;8.93;;;20.00;63.80;;;;;;4986079;28;20158;-54
2023/05/16 09:01:59;;;;;;;14.30;8.93;;;20.00;63.70;;;;;;4986614;28;20030;-54
2023/05/16 09:04:26;;;;;;;13.13;8.60;;;20.00;63.70;;;;;;4989953;28;20380;-57
2023/05/16 09:06:52;;;;;;;13.25;9.70;;;20.10;63.70;;;;;;4990239;28;20522;-51
2023/05/16 09:09:18;;;;;;;11.55;9.02;;;20.10;63.60;;;;;;4988488;28;20037;-55
2023/05/16 09:11:44;;;;;;;10.65;8.75;;;20.10;63.50;;;;;;4982905;28;20034;-53
2023/05/16 09:14:09;;;;;;;10.90;8.63;;;20.00;63.30;;;;;;4989047;28;20109;-56
2023/05/16 09:16:35;;;;;;;13.52;9.43;;;20.00;63.20;;;;;;4990134;28;20109;-50
2023/05/16 09:19:01;;;;;;;11.52;9.65;;;20.10;63.20;;;;;;4983417;28;20157;-48
2023/05/16 09:21:32;;;;;;;11.23;9.90;;;20.10;63.20;;;;;;4984265;28;20513;-50
2023/05/16 09:24:05;;;;;;;13.35;10.90;;;20.10;63.20;;;;;;4985178;28;20515;-55
2023/05/16 09:26:38;;;;;;;12.95;10.32;;;20.00;63.10;;;;;;4985183;28;20041;-52
2023/05/16 09:29:11;;;;;;;11.25;10.13;;;20.00;63.00;;;;;;4986479;28;20041;-51
2023/05/16 09:31:37;;;;;;;12.68;10.52;;;20.00;63.00;;;;;;4985050;28;20495;-52
2023/05/16 09:34:06;;;;;;;11.25;9.98;;;20.00;63.00;;;;;;4996043;28;20038;-55
2023/05/16 09:36:32;;;;;;;11.88;10.68;;;20.00;63.00;;;;;;4990964;28;20038;-51
2023/05/16 09:38:57;;;;;;;12.98;11.43;;;20.00;62.90;;;;;;4995453;28;20060;-53
2023/05/16 09:41:23;;;;;;;18.10;12.30;;;20.00;62.80;;;;;;4988734;28;20487;-54
2023/05/16 09:43:48;;;;;;;14.30;11.50;;;20.00;62.80;;;;;;4993399;28;20026;-55
2023/05/16 09:46:14;;;;;;;13.02;10.85;;;20.00;62.90;;;;;;4996822;28;20097;-56
2023/05/16 09:48:46;;;;;;;17.55;12.32;;;20.00;62.70;;;;;;4985598;28;20437;-51
2023/05/16 09:51:13;;;;;;;19.55;13.45;;;20.00;62.60;;;;;;4988135;28;20089;-54
2023/05/16 09:53:40;;;;;;;18.17;13.18;;;20.00;62.60;;;;;;4987082;28;20145;-56
2023/05/16 09:56:09;;;;;;;13.05;11.52;;;20.00;62.60;;;;;;4988743;28;20027;-51
2023/05/16 09:58:37;;;;;;;23.83;15.20;;;20.00;62.60;;;;;;4988915;28;20117;-53
2023/05/16 10:01:04;;;;;;;37.75;25.23;;;20.00;62.60;;;;;;4988557;28;20034;-57
2023/05/16 10:03:30;;;;;;;42.30;27.15;;;20.00;62.80;;;;;;4993155;28;20097;-54
2023/05/16 10:05:55;;;;;;;49.67;28.20;;;19.90;62.90;;;;;;4993447;28;20033;-53
2023/05/16 10:08:24;;;;;;;60.45;33.58;;;20.00;63.20;;;;;;4991794;28;20431;-54
2023/05/16 10:10:54;;;;;;;60.80;33.95;;;20.00;63.90;;;;;;4984628;28;20418;-55
2023/05/16 10:13:21;;;;;;;52.47;33.17;;;20.00;63.40;;;;;;4990573;28;20037;-49
2023/05/16 10:15:48;;;;;;;46.97;28.80;;;20.00;63.40;;;;;;4994317;28;20037;-58
2023/05/16 10:18:17;;;;;;;49.88;29.80;;;20.00;63.40;;;;;;4989625;28;20030;-50
2023/05/16 10:20:44;;;;;;;47.88;27.95;;;20.00;63.20;;;;;;4986226;28;20093;-53
2023/05/16 10:23:16;;;;;;;42.35;25.85;;;20.00;63.10;;;;;;4991001;28;20030;-54
2023/05/16 10:25:43;;;;;;;38.55;25.02;;;20.00;63.10;;;;;;4989855;28;20466;-53
2023/05/16 10:28:09;;;;;;;40.17;22.77;;;20.00;63.00;;;;;;4989431;28;20487;-50
2023/05/16 10:30:36;;;;;;;30.70;20.83;;;20.00;63.00;;;;;;4989619;28;20038;-52
2023/05/16 10:33:03;;;;;;;30.70;19.35;;;19.90;62.90;;;;;;4996401;28;20026;-56
2023/05/16 10:35:30;;;;;;;28.75;19.38;;;19.90;63.50;;;;;;4995502;28;20504;-54
2023/05/16 10:37:56;;;;;;;31.77;17.08;;;19.90;62.80;;;;;;4995423;28;20037;-49
2023/05/16 10:40:23;;;;;;;23.27;16.75;;;19.90;62.80;;;;;;4985091;28;20426;-54
2023/05/16 10:43:01;;;;;;;21.45;16.05;;;19.90;62.80;;;;;;4989620;28;20109;-53
2023/05/16 10:45:26;;;;;;;25.30;15.43;;;19.90;62.80;;;;;;4989487;28;20038;-52
2023/05/16 10:48:08;;;;;;;20.08;13.45;;;19.90;63.10;;;;;;4994641;28;20637;-49
2023/05/16 10:50:42;;;;;;;16.88;13.05;;;19.90;62.70;;;;;;4987361;28;20034;-48
2023/05/16 10:53:34;;;;;;;16.38;12.10;;;19.90;62.70;;;;;;4989915;28;20142;-55
2023/05/16 10:56:02;;;;;;;21.33;10.60;;;19.90;62.70;;;;;;4993680;28;20038;-51
2023/05/16 10:58:37;;;;;;;16.58;11.13;;;19.90;62.60;;;;;;4990394;28;20539;-50
2023/05/16 11:01:28;;;;;;;15.98;10.77;;;19.90;63.20;;;;;;4991758;28;20491;-55
2023/05/16 11:06:32;;;;;;;12.35;9.15;;;19.90;62.50;;;;;;4989643;28;20038;-48
2023/05/16 11:09:10;;;;;;;14.85;8.18;;;19.80;62.50;;;;;;4981856;28;20042;-58
2023/05/16 11:11:51;;;;;;;10.65;8.93;;;19.80;62.30;;;;;;4987732;28;20030;-55
2023/05/16 11:14:36;;;;;;;10.50;7.93;;;19.80;62.40;;;;;;4985668;28;20030;-54
2023/05/16 11:17:19;;;;;;;9.07;7.10;;;19.80;62.40;;;;;;4987366;28;20439;-55
2023/05/16 11:19:58;;;;;;;10.48;7.15;;;19.80;62.40;;;;;;4980345;28;20039;-55
2023/05/16 11:22:28;;;;;;;8.82;6.97;;;19.80;62.30;;;;;;4989512;28;20069;-55
2023/05/16 11:24:56;;;;;;;8.63;6.60;;;19.80;62.40;;;;;;4990541;28;20035;-54
2023/05/16 11:27:24;;;;;;;9.05;6.00;;;19.80;62.20;;;;;;4987284;28;20034;-55
2023/05/16 11:29:51;;;;;;;8.90;5.72;;;19.80;62.30;;;;;;4991595;28;20030;-53
2023/05/16 11:32:21;;;;;;;6.68;6.00;;;19.70;62.20;;;;;;4992312;28;20031;-54
2023/05/16 11:34:48;;;;;;;8.38;6.68;;;19.70;62.30;;;;;;4995466;28;20050;-51
2023/05/16 11:37:15;;;;;;;6.50;5.18;;;19.70;62.10;;;;;;4991791;28;20435;-56
2023/05/16 11:39:41;;;;;;;7.47;4.57;;;19.70;62.10;;;;;;4983667;28;20030;-51
2023/05/16 11:42:08;;;;;;;5.78;5.03;;;19.70;62.10;;;;;;4987108;28;20029;-49
2023/05/16 11:44:34;;;;;;;6.30;5.03;;;19.70;62.10;;;;;;4988411;28;20056;-48
2023/05/16 11:47:00;;;;;;;7.32;4.68;;;19.70;62.00;;;;;;4988122;28;20054;-52
2023/05/16 11:49:27;;;;;;;6.13;4.22;;;19.70;61.90;;;;;;4986716;28;20145;-57
2023/05/16 11:51:53;;;;;;;4.20;3.80;;;19.70;62.00;;;;;;4989566;28;20042;-57
2023/05/16 11:54:19;;;;;;;8.07;4.60;;;19.70;61.90;;;;;;4990030;28;20030;-54
2023/05/16 11:56:45;;;;;;;3.72;3.42;;;19.70;61.90;;;;;;4988277;28;20030;-53
2023/05/16 11:59:11;;;;;;;8.20;3.97;;;19.70;61.90;;;;;;4988659;28;20026;-56
2023/05/16 12:01:38;;;;;;;5.28;3.80;;;19.70;61.90;;;;;;4991885;28;20032;-55
2023/05/16 12:04:11;;;;;;;5.00;4.13;;;19.70;61.90;;;;;;4993447;28;20033;-54
2023/05/16 12:06:37;;;;;;;4.63;3.47;;;19.70;61.90;;;;;;4990177;28;20031;-52
2023/05/16 12:09:10;;;;;;;5.15;3.65;;;19.70;61.90;;;;;;4977437;28;20041;-55
2023/05/16 12:11:40;;;;;;;3.10;2.60;;;19.70;61.70;;;;;;4983166;28;20064;-54
2023/05/16 12:14:10;;;;;;;4.50;2.80;;;19.70;61.80;;;;;;4980061;28;20496;-48
2023/05/16 12:16:38;;;;;;;13.10;3.80;;;19.70;61.90;;;;;;4985926;28;20041;-51
2023/05/16 12:19:07;;;;;;;12.02;3.63;;;19.70;62.40;;;;;;4986915;28;20030;-57
2023/05/16 12:21:33;;;;;;;7.38;3.58;;;19.80;62.20;;;;;;4982654;28;20030;-54
2023/05/16 12:23:58;;;;;;;6.30;3.42;;;19.70;62.30;;;;;;4983293;28;20034;-51
2023/05/16 12:26:32;;;;;;;4.75;3.38;;;19.80;62.50;;;;;;4985295;28;20089;-53
2023/05/16 12:29:01;;;;;;;5.32;3.33;;;19.80;62.50;;;;;;4987231;28;20042;-55
2023/05/16 12:31:29;;;;;;;5.20;3.38;;;19.70;62.50;;;;;;4990764;28;20423;-58
2023/05/16 12:33:55;;;;;;;5.18;3.15;;;19.80;62.60;;;;;;4992878;28;20490;-51
2023/05/16 12:36:22;;;;;;;4.10;3.03;;;19.80;62.60;;;;;;4990986;28;20033;-53
2023/05/16 12:38:48;;;;;;;7.70;3.47;;;19.80;62.60;;;;;;4986012;28;20507;-53
2023/05/16 12:41:21;;;;;;;3.90;2.83;;;19.80;62.70;;;;;;4987646;28;20561;-51
2023/05/16 12:43:47;;;;;;;8.13;2.80;;;19.80;62.80;;;;;;4984109;28;20416;-54
2023/05/16 12:46:13;;;;;;;5.97;3.10;;;19.90;62.80;;;;;;4988518;28;20041;-51